Quick Links (Output Below):   Max & Min Temps   /   Climate Reports   /   Zone Forecasts
River Forecasts   /   Forestry Forecasts   /   Aviation Forecasts   /   Radars   /   Features

Terminal Aerodrome Forecast (Fayetteville)

Pick a Site:
Arkadelphia | El Dorado | Fayetteville | Fort Smith | Harrison | Highfill | Hot Springs | Jonesboro
Little Rock | Monticello | Mountain Home | Pine Bluff | Texarkana
 Forecast 

KFYV 021314Z 0213/0312 VRB04KT P6SM -RA FEW011 BKN060 OVC080
      TEMPO 0213/0215 2SM TSRA BKN020CB
     FM021500 04008KT P6SM OVC025
     FM021700 21008KT P6SM BKN035 BKN100
     FM030200 16003KT P6SM BKN150=


 Latest METARs (Observations) 
How to Decode METARs
14Z KFYV 021353Z 08007KT 6SM VCTS RA BR FEW011 BKN035 OVC060 18/18
         A3011 RMK AO2 LTG DSNT ALQDS PRESFR SLP183 P0015
         T01830183
         
13Z KFYV 021253Z VRB04KT 10SM VCTS -RA FEW011 BKN060 OVC080 18/18
         A3010 RMK AO2 LTG DSNT ALQDS TSE50 SLP179 P0093 T01830183
         
12Z KFYV 021153Z 03007G19KT 1 3/4SM +TSRA BR FEW011 BKN027 OVC044
         18/18 A3008 RMK AO2 PK WND 35026/1125 LTG DSNT ALQDS TSB53
         SLP171 P0043 60048 70049 T01830183 10250 20183 53037
         
11Z KFYV 021053Z 33006KT 4SM RA BR FEW018 BKN025 OVC034 21/19 A3001
         RMK AO2 LTG DSNT W-N RAB39 SLP146 P0005 T02110194
         
10Z KFYV 020953Z AUTO 07008KT 10SM BKN024 OVC032 23/21 A2998 RMK AO2
         LTG DSNT NE SLP135 T02330211
         
09Z KFYV 020853Z AUTO 00000KT 10SM CLR 24/22 A2996 RMK AO2 LTG DSNT N
         AND NE SLP129 T02390217 53010
         
08Z KFYV 020753Z AUTO 00000KT 10SM CLR 24/22 A2993 RMK AO2 LTG DSNT NW
         SLP117 T02440217
         
07Z KFYV 020653Z AUTO 17004KT 10SM CLR 24/22 A2992 RMK AO2 SLP117
         T02440217
         
06Z KFYV 020553Z AUTO 12005KT 10SM CLR 24/21 A2993 RMK AO2 PRESFR
         SLP120 T02390211 10289 20239 403110189 50008
         
05Z KFYV 020453Z AUTO 23006KT 10SM CLR 26/21 A2999 RMK AO2 PRESRR
         SLP139 T02610211
         
***** Today's Observations (Above) *****


Back to Main Page
http://www.srh.noaa.gov/lzk/qfcst.php

USA.gov is the U.S. government's official web portal to all federal, state and local government web resources and services.